Terminal Aerodrome Forecast
Issued by NWS Wilmington, OH

Current Version | Previous Version | Text Only | Print | Product List | Glossary Off
Versions: 1 2 3 4 5 6 7 8 9 10 11 12 13 14 15 16 17 18 19 20 21 22 23 24

000
FTUS41 KILN 202000 AAA
TAFCVG
TAF AMD
KCVG 202059Z 2021/2124 VRB03KT P6SM FEW050 SCT250
     FM210000 VRB03KT P6SM BKN250
     FM211500 22007KT P6SM SCT050 BKN150
     FM212300 23011KT P6SM BKN040 OVC100=

USA.gov is the U.S. government's official web portal to all federal, state and local government web resources and services.